Fort Dodge Regional Airport Fort Dodge US
ICAO: KFOD
IATA: FOD
Category: Medium
Scheduled Services: Yes

Elevation: 1156 ft
TransAlt. 18000 ft.

Airport Communications:
AWOS 3:118.775
MINNEAPOLIS CNTR:134
RDO:122.3
CTAF/UNICOM:122.95

KFOD Zoom In..

Runways:

(A) RW 06 length 6547 ft width 150 ft
ILS 109.10 / hdg 63

(B) RW 12 length 5301 ft width 100 ft
---- / hdg 125

(C) RW 24 length 6547 ft width 150 ft
---- / hdg 243

(D) RW 30 length 5301 ft width 100 ft
---- / hdg 305

Location; KFOD
Day. 08 / Time. 03.56 Zulu
* Altimeter: 29.75
* Temperature: 14° c. 57.2°f.
* Wind from: 010° Speed 03 kn.
Dewpoint: 07° c.
Visibility: 10 Statute Miles.
Clouds: Clear (automated report).

KFOD 080356Z AUTO 01003KT 10SM CLR 14/07 A2975 RMK AO2 SLP098 T01390072


Wind From 010°
Speed 03 kn.

 
 
jpsmedia worldairports.se 2020   terms of use